Time;durP1;ratioP1;P1;durP2;ratioP2;P2;SDS_P1;SDS_P2;PMS_P1;PMS_P2;Temp;Humidity;BMP_temperature;BMP_pressure;BME280_temperature;BME280_humidity;BME280_pressure;Samples;Min_cycle;Max_cycle;Signal;HPM_P1;HPM_P2
2023/06/24 00:01:08;;;;;;;10.05;6.65;;;;;;;17.47;78.05;96553.69;5096965;28;20054;-69
2023/06/24 00:03:37;;;;;;;9.68;7.07;;;;;;;17.49;77.30;96553.59;5097133;28;20055;-68
2023/06/24 00:06:04;;;;;;;8.15;6.28;;;;;;;17.47;77.47;96547.53;5097091;28;20047;-69
2023/06/24 00:08:34;;;;;;;8.35;6.13;;;;;;;17.49;76.87;96543.84;5097102;28;20441;-69
2023/06/24 00:11:02;;;;;;;9.93;6.85;;;;;;;17.46;76.41;96546.69;5097015;28;20044;-70
2023/06/24 00:13:29;;;;;;;9.75;7.13;;;;;;;17.41;76.57;96540.88;5096940;28;20040;-69
2023/06/24 00:15:57;;;;;;;10.23;6.68;;;;;;;17.36;76.97;96541.16;5096867;28;20560;-69
2023/06/24 00:18:29;;;;;;;7.20;6.22;;;;;;;17.29;76.43;96532.81;5096850;28;20059;-69
2023/06/24 00:20:57;;;;;;;10.70;6.88;;;;;;;17.26;76.95;96524.22;5096805;28;20052;-70
2023/06/24 00:23:25;;;;;;;9.82;6.47;;;;;;;17.20;76.61;96533.41;5096680;28;20043;-69
2023/06/24 00:25:52;;;;;;;10.30;6.45;;;;;;;17.17;76.58;96529.16;5096703;28;20097;-67
2023/06/24 00:28:19;;;;;;;11.80;6.32;;;;;;;17.13;76.84;96530.28;5096781;28;20075;-66
2023/06/24 00:30:46;;;;;;;8.48;6.63;;;;;;;17.07;77.22;96530.72;5096645;28;20047;-70
2023/06/24 00:33:13;;;;;;;6.80;6.20;;;;;;;17.01;77.37;96542.47;5096669;28;20044;-68
2023/06/24 00:35:40;;;;;;;12.95;6.68;;;;;;;16.98;76.84;96534.72;5096652;28;20044;-68
2023/06/24 00:38:09;;;;;;;8.75;6.68;;;;;;;16.96;76.98;96531.34;5096671;28;20119;-67
2023/06/24 00:40:36;;;;;;;9.52;6.55;;;;;;;16.92;76.90;96525.41;5096364;28;20048;-68
2023/06/24 00:43:04;;;;;;;6.80;6.10;;;;;;;16.82;76.40;96520.84;5096432;28;20413;-69
2023/06/24 00:45:31;;;;;;;10.50;6.05;;;;;;;16.74;76.39;96519.50;5096117;28;20044;-69
2023/06/24 00:47:59;;;;;;;14.40;6.40;;;;;;;16.73;76.46;96514.31;5096347;28;20097;-68
2023/06/24 00:50:26;;;;;;;10.52;6.82;;;;;;;16.65;77.09;96507.72;5096150;28;20142;-68
2023/06/24 00:52:53;;;;;;;8.57;5.75;;;;;;;16.63;76.76;96508.78;5096148;28;20055;-67
2023/06/24 00:55:22;;;;;;;7.97;6.20;;;;;;;16.62;77.05;96500.00;5096169;28;20512;-70
2023/06/24 00:57:53;;;;;;;8.90;6.78;;;;;;;16.65;77.59;96505.09;5096026;28;20058;-69
2023/06/24 01:00:22;;;;;;;7.45;5.80;;;;;;;16.66;77.53;96511.22;5096027;28;20040;-66
2023/06/24 01:02:50;;;;;;;7.45;6.18;;;;;;;16.63;77.62;96514.94;5095268;28;20040;-66
2023/06/24 01:05:17;;;;;;;7.45;5.22;;;;;;;16.63;77.43;96509.66;5095873;28;20084;-67
2023/06/24 01:07:45;;;;;;;12.38;6.88;;;;;;;16.61;77.59;96508.88;5095942;28;20131;-66
2023/06/24 01:10:14;;;;;;;11.38;6.20;;;;;;;16.54;77.60;96510.22;5095955;28;20052;-65
2023/06/24 01:12:44;;;;;;;12.48;6.13;;;;;;;16.50;77.62;96506.06;5096016;28;20470;-67
2023/06/24 01:15:12;;;;;;;9.20;6.67;;;;;;;16.42;78.09;96506.53;5095909;28;20052;-67
2023/06/24 01:17:46;;;;;;;16.05;6.20;;;;;;;16.39;78.34;96507.59;5095688;28;20284;-67
2023/06/24 01:20:22;;;;;;;8.35;6.55;;;;;;;16.32;78.58;96502.78;5095642;28;20044;-67
2023/06/24 01:23:18;;;;;;;20.83;7.05;;;;;;;16.29;78.71;96502.03;5095605;28;20577;-67
2023/06/24 01:26:07;;;;;;;9.80;7.25;;;;;;;16.31;78.73;96501.94;5094576;28;20387;-69
2023/06/24 01:28:56;;;;;;;12.40;7.00;;;;;;;16.35;78.59;96492.03;5092519;28;20113;-66
2023/06/24 01:31:42;;;;;;;8.05;6.38;;;;;;;16.22;78.46;96489.31;5095368;28;20139;-69
2023/06/24 01:34:19;;;;;;;11.48;6.78;;;;;;;16.19;78.47;96500.06;5095472;28;20055;-66
2023/06/24 01:36:56;;;;;;;7.18;6.28;;;;;;;16.19;78.62;96500.06;5095762;28;20497;-67
2023/06/24 01:39:26;;;;;;;7.00;6.25;;;;;;;16.14;78.55;96492.44;5095422;28;20048;-66
2023/06/24 01:41:58;;;;;;;7.43;6.28;;;;;;;16.17;78.32;96493.06;5095147;28;20070;-68
2023/06/24 01:44:26;;;;;;;9.00;6.40;;;;;;;16.15;78.53;96494.13;5094951;28;20079;-69
2023/06/24 01:46:58;;;;;;;9.20;6.32;;;;;;;16.15;78.53;96494.13;5095143;28;20058;-67
2023/06/24 01:49:30;;;;;;;12.20;6.95;;;;;;;16.12;78.54;96495.16;5095232;28;20109;-67
2023/06/24 01:52:00;;;;;;;9.38;6.93;;;;;;;16.14;78.30;96490.63;5095014;28;20490;-67
2023/06/24 01:54:29;;;;;;;10.60;6.97;;;;;;;16.14;78.54;96489.78;5095150;28;20079;-69
2023/06/24 01:56:58;;;;;;;9.20;6.97;;;;;;;16.07;78.36;96483.19;5094929;28;20081;-66
2023/06/24 01:59:29;;;;;;;12.18;7.05;;;;;;;16.04;78.71;96492.13;5094892;28;20055;-67
2023/06/24 02:01:58;;;;;;;;;;;;;;;16.00;78.71;96487.97;5095206;28;20057;-69
2023/06/24 02:04:30;;;;;;;9.25;6.18;;;;;;;15.87;78.80;96490.50;5094787;28;19920;-69
2023/06/24 02:07:01;;;;;;;9.15;6.43;;;;;;;15.85;79.06;96487.94;5094855;28;20040;-69
2023/06/24 02:09:30;;;;;;;;;;;;;;;15.82;79.21;96492.53;5095294;28;20048;-68
2023/06/24 02:11:58;;;;;;;7.72;6.88;;;;;;;15.77;79.80;96488.41;5094803;28;20281;-68
2023/06/24 02:14:27;;;;;;;13.00;6.82;;;;;;;15.74;79.45;96488.59;5093524;28;20050;-67
2023/06/24 02:16:57;;;;;;;9.98;6.75;;;;;;;15.77;79.62;96496.31;5094413;28;20063;-69
2023/06/24 02:19:28;;;;;;;10.13;6.68;;;;;;;15.78;79.71;96498.00;5094627;28;20130;-68
2023/06/24 02:21:57;;;;;;;8.05;6.57;;;;;;;15.72;79.67;96495.75;5094433;28;20105;-66
2023/06/24 02:24:26;;;;;;;8.73;6.57;;;;;;;15.68;79.82;96496.84;5094396;28;20126;-66
2023/06/24 02:26:54;;;;;;;8.73;6.72;;;;;;;15.69;79.95;96493.31;5094483;28;20401;-66
2023/06/24 02:29:23;;;;;;;8.23;7.15;;;;;;;15.71;79.64;96498.47;5094307;28;20130;-68
2023/06/24 02:31:51;;;;;;;9.57;6.55;;;;;;;15.67;79.66;96503.06;5094426;28;20078;-67
2023/06/24 02:34:18;;;;;;;12.32;6.72;;;;;;;15.60;79.74;96504.38;5094304;28;20051;-66
2023/06/24 02:36:46;;;;;;;7.80;6.88;;;;;;;15.58;79.59;96508.88;5094163;28;20058;-66
2023/06/24 02:39:13;;;;;;;7.60;6.50;;;;;;;15.57;79.48;96508.06;5094199;28;20481;-66
2023/06/24 02:41:40;;;;;;;7.78;6.35;;;;;;;15.56;79.72;96519.53;5094075;28;20091;-66
2023/06/24 02:44:08;;;;;;;8.23;6.35;;;;;;;15.57;79.80;96515.97;5093850;28;20582;-66
2023/06/24 02:46:37;;;;;;;8.98;7.00;;;;;;;15.55;80.17;96512.56;5093985;28;20063;-66
2023/06/24 02:49:05;;;;;;;8.40;6.60;;;;;;;15.56;80.19;96516.88;5094043;28;20490;-68
2023/06/24 02:51:33;;;;;;;9.77;6.15;;;;;;;15.51;80.38;96526.88;5093936;28;20048;-69
2023/06/24 02:54:02;;;;;;;8.57;6.68;;;;;;;15.53;80.50;96531.09;5093804;28;20044;-68
2023/06/24 02:56:30;;;;;;;11.43;7.00;;;;;;;15.54;80.26;96527.50;5093909;28;20048;-66
2023/06/24 02:58:57;;;;;;;7.53;6.20;;;;;;;15.50;80.57;96530.44;5093876;28;20071;-69
2023/06/24 03:01:25;;;;;;;8.98;6.50;;;;;;;15.48;80.28;96543.72;5093862;28;20060;-65
2023/06/24 03:03:54;;;;;;;7.47;6.53;;;;;;;15.46;80.74;96534.19;5093754;28;20048;-70
2023/06/24 03:06:22;;;;;;;7.65;6.90;;;;;;;15.46;80.99;96544.72;5093649;28;20131;-69
2023/06/24 03:08:50;;;;;;;13.02;7.20;;;;;;;15.52;80.99;96533.81;5093658;28;20052;-68
2023/06/24 03:11:18;;;;;;;6.90;6.22;;;;;;;15.56;81.03;96543.25;5093668;28;20048;-68
2023/06/24 03:13:45;;;;;;;11.30;7.20;;;;;;;15.62;80.83;96540.25;5093603;28;20071;-66
2023/06/24 03:16:13;;;;;;;11.43;6.80;;;;;;;15.69;80.84;96537.25;5093507;28;20088;-66
2023/06/24 03:18:42;;;;;;;9.77;7.05;;;;;;;15.74;80.21;96543.97;5093505;28;20094;-66
2023/06/24 03:21:09;;;;;;;7.53;6.53;;;;;;;15.65;80.13;96545.34;5093412;28;20044;-69
2023/06/24 03:23:36;;;;;;;9.15;6.05;;;;;;;15.68;80.31;96552.22;5093560;28;20047;-68
2023/06/24 03:26:03;;;;;;;13.85;7.05;;;;;;;15.76;80.28;96557.06;5093041;28;20546;-66
2023/06/24 03:28:32;;;;;;;7.07;6.38;;;;;;;15.82;80.48;96556.69;5093238;28;20131;-68
2023/06/24 03:30:59;;;;;;;7.00;6.30;;;;;;;15.97;80.83;96557.59;5093434;28;20044;-66
2023/06/24 03:33:27;;;;;;;10.73;6.70;;;;;;;16.13;79.90;96548.75;5093420;28;20123;-66
2023/06/24 03:35:54;;;;;;;9.48;6.25;;;;;;;16.35;79.65;96550.09;5093262;28;20491;-68
2023/06/24 03:38:22;;;;;;;8.18;6.07;;;;;;;16.66;78.23;96541.13;5093270;28;20052;-69
2023/06/24 03:40:49;;;;;;;8.57;5.35;;;;;;;17.05;77.43;96548.41;5093265;28;20060;-65
2023/06/24 03:43:16;;;;;;;6.93;5.70;;;;;;;17.42;76.10;96543.41;5093090;28;20501;-68
2023/06/24 03:45:44;;;;;;;6.93;5.53;;;;;;;17.82;73.73;96544.31;5093071;28;20040;-68
2023/06/24 03:48:13;;;;;;;8.65;4.82;;;;;;;18.18;72.06;96539.31;5093189;28;20044;-68
2023/06/24 03:50:39;;;;;;;6.38;5.20;;;;;;;18.49;69.99;96545.13;5093077;28;20396;-68
2023/06/24 03:53:07;;;;;;;7.15;5.22;;;;;;;18.84;68.94;96553.34;5093290;28;20088;-67
2023/06/24 03:55:34;;;;;;;7.30;4.57;;;;;;;19.11;67.66;96558.47;5093105;28;20054;-69
2023/06/24 03:58:01;;;;;;;6.07;5.30;;;;;;;19.39;66.44;96560.91;5093148;28;20048;-67
2023/06/24 04:00:28;;;;;;;8.30;5.00;;;;;;;19.76;66.47;96562.63;5093204;28;20048;-67
2023/06/24 04:03:00;;;;;;;9.50;5.30;;;;;;;20.18;65.68;96567.47;5093045;28;20526;-68
2023/06/24 04:05:28;;;;;;;9.88;5.85;;;;;;;20.67;64.05;96567.25;5093024;28;20052;-69
2023/06/24 04:07:55;;;;;;;8.40;4.80;;;;;;;21.08;63.24;96567.63;5093004;28;20543;-68
2023/06/24 04:10:22;;;;;;;5.78;5.10;;;;;;;21.42;61.78;96569.34;5092999;28;20066;-67
2023/06/24 04:12:49;;;;;;;7.07;5.15;;;;;;;21.76;59.83;96574.56;5092926;28;20055;-68
2023/06/24 04:15:16;;;;;;;6.20;5.28;;;;;;;22.09;59.66;96577.19;5092921;28;20071;-68
2023/06/24 04:17:44;;;;;;;6.35;4.38;;;;;;;22.45;59.21;96572.34;5092926;28;20087;-68
2023/06/24 04:20:14;;;;;;;7.20;5.20;;;;;;;22.74;57.89;96576.16;5092897;28;20383;-66
2023/06/24 04:22:42;;;;;;;7.30;4.82;;;;;;;22.94;56.85;96571.75;5092814;28;20055;-68
2023/06/24 04:25:10;;;;;;;5.20;4.35;;;;;;;23.21;56.97;96569.44;5092886;28;20050;-65
2023/06/24 04:27:37;;;;;;;9.85;4.70;;;;;;;23.42;56.23;96571.19;5092823;28;20040;-68
2023/06/24 04:30:05;;;;;;;5.97;4.95;;;;;;;23.64;55.02;96580.75;5092838;28;20135;-66
2023/06/24 04:32:33;;;;;;;8.52;4.65;;;;;;;23.86;53.73;96570.75;5092903;28;20052;-67
2023/06/24 04:35:00;;;;;;;7.63;5.00;;;;;;;24.19;52.04;96571.31;5092749;28;20127;-67
2023/06/24 04:37:29;;;;;;;5.22;4.72;;;;;;;24.49;52.31;96565.91;5093374;28;20051;-67
2023/06/24 04:39:56;;;;;;;5.60;5.00;;;;;;;24.70;51.63;96562.16;5096410;28;20508;-67
2023/06/24 04:42:24;;;;;;;7.25;5.25;;;;;;;24.94;52.57;96569.69;5096363;28;20048;-67
2023/06/24 04:44:51;;;;;;;12.65;4.95;;;;;;;25.21;52.35;96556.44;5096192;28;20040;-66
2023/06/24 04:47:19;;;;;;;7.57;5.38;;;;;;;25.45;51.11;96563.06;5096286;28;20044;-68
2023/06/24 04:49:46;;;;;;;5.55;4.53;;;;;;;25.69;50.74;96573.19;5096317;28;20055;-68
2023/06/24 04:52:14;;;;;;;5.30;4.80;;;;;;;25.92;51.65;96559.34;5096309;28;20122;-67
2023/06/24 04:54:43;;;;;;;8.68;4.80;;;;;;;26.27;51.80;96561.25;5096202;28;20048;-67
2023/06/24 04:57:23;;;;;;;6.72;5.05;;;;;;;26.53;52.28;96558.59;5096094;28;20048;-69
2023/06/24 04:59:50;;;;;;;;;;;;;;;26.79;50.22;96560.38;5096478;28;20044;-66
2023/06/24 05:02:17;;;;;;;6.97;4.35;;;;;;;27.05;50.09;96561.38;5095990;28;20362;-67
2023/06/24 05:04:44;;;;;;;8.70;5.63;;;;;;;27.32;48.35;96562.13;5095986;28;20044;-68
2023/06/24 05:07:11;;;;;;;5.85;5.00;;;;;;;27.55;48.53;96562.34;5095905;28;20048;-67
2023/06/24 05:09:39;;;;;;;6.00;5.30;;;;;;;27.88;48.51;96569.63;5096032;28;20044;-66
2023/06/24 05:12:09;;;;;;;5.53;4.90;;;;;;;28.22;49.19;96573.13;5095840;28;20048;-68
2023/06/24 05:14:36;;;;;;;9.45;4.95;;;;;;;28.43;48.36;96575.31;5095966;28;20116;-67
2023/06/24 05:17:04;;;;;;;6.05;5.28;;;;;;;28.65;47.29;96577.47;5095813;28;20044;-66
2023/06/24 05:19:31;;;;;;;7.07;5.70;;;;;;;28.84;47.31;96582.44;5095710;28;20791;-68
2023/06/24 05:21:59;;;;;;;7.80;6.03;;;;;;;29.01;45.98;96580.56;5095475;28;20052;-69
2023/06/24 05:24:26;;;;;;;10.73;6.68;;;;;;;29.21;46.18;96579.28;5095660;28;20044;-68
2023/06/24 05:26:54;;;;;;;11.60;5.72;;;;;;;29.42;45.12;96581.38;5095649;28;20055;-68
2023/06/24 05:29:22;;;;;;;9.68;6.22;;;;;;;29.63;45.29;96575.38;5095590;28;20130;-66
2023/06/24 05:31:50;;;;;;;8.20;5.78;;;;;;;29.89;44.97;96576.88;5095597;28;20062;-67
2023/06/24 05:34:17;;;;;;;12.70;6.20;;;;;;;30.10;45.58;96575.34;5095387;28;20402;-68
2023/06/24 05:36:44;;;;;;;8.57;6.43;;;;;;;30.18;45.54;96573.63;5095372;28;20130;-66
2023/06/24 05:39:12;;;;;;;9.40;6.20;;;;;;;30.38;44.38;96572.13;5095439;28;20044;-67
2023/06/24 05:41:39;;;;;;;9.50;6.00;;;;;;;30.59;43.55;96567.84;5095246;28;20048;-68
2023/06/24 05:44:10;;;;;;;8.02;5.75;;;;;;;30.61;41.43;96576.56;5095061;28;20040;-66
2023/06/24 05:46:39;;;;;;;6.80;5.43;;;;;;;30.80;43.38;96562.75;5095331;28;20109;-68
2023/06/24 05:49:06;;;;;;;9.18;5.10;;;;;;;30.80;36.60;96555.50;5094975;28;20063;-68
2023/06/24 05:51:34;;;;;;;6.82;5.05;;;;;;;30.49;39.62;96567.28;5095118;28;20135;-69
2023/06/24 05:54:03;;;;;;;7.55;5.20;;;;;;;30.53;41.58;96571.28;5094994;28;20094;-67
2023/06/24 05:56:31;;;;;;;8.07;4.80;;;;;;;30.64;39.48;96570.81;5095006;28;20040;-67
2023/06/24 05:58:58;;;;;;;6.07;4.97;;;;;;;30.71;39.23;96576.31;5094979;28;20128;-68
2023/06/24 06:01:27;;;;;;;5.32;4.82;;;;;;;30.84;39.16;96572.13;5094619;28;20063;-67
2023/06/24 06:03:56;;;;;;;9.50;5.45;;;;;;;30.96;38.99;96569.81;5094970;28;20056;-66
2023/06/24 06:06:24;;;;;;;6.30;5.68;;;;;;;31.03;36.05;96573.44;5094858;28;20413;-67
2023/06/24 06:08:51;;;;;;;7.10;5.65;;;;;;;31.27;37.55;96580.38;5094732;28;20047;-67
2023/06/24 06:11:18;;;;;;;9.63;4.90;;;;;;;31.47;37.69;96571.72;5094724;28;20047;-67
2023/06/24 06:13:46;;;;;;;6.65;4.93;;;;;;;31.60;36.56;96578.28;5094700;28;20052;-69
2023/06/24 06:16:14;;;;;;;7.75;4.97;;;;;;;31.92;39.18;96568.03;5094638;28;20044;-67
2023/06/24 06:18:42;;;;;;;7.10;4.40;;;;;;;32.11;35.90;96579.22;5094659;28;20052;-67
2023/06/24 06:21:11;;;;;;;5.47;3.92;;;;;;;31.75;29.28;96570.09;5094607;28;20048;-68
2023/06/24 06:23:39;;;;;;;7.50;4.40;;;;;;;31.85;33.42;96573.34;5094431;28;20058;-66
2023/06/24 06:26:07;;;;;;;4.47;4.05;;;;;;;31.42;29.63;96573.31;5094462;28;20391;-67
2023/06/24 06:28:34;;;;;;;6.13;4.28;;;;;;;31.05;32.95;96574.09;5094340;28;20071;-68
2023/06/24 06:31:02;;;;;;;10.50;5.18;;;;;;;30.87;36.05;96563.69;5094453;28;20048;-69
2023/06/24 06:33:30;;;;;;;5.00;4.50;;;;;;;30.83;31.69;96560.53;5094395;28;20044;-69
2023/06/24 06:36:00;;;;;;;4.82;4.05;;;;;;;31.11;34.37;96565.25;5094361;28;20113;-67
2023/06/24 06:38:30;;;;;;;4.55;4.15;;;;;;;31.49;34.41;96569.66;5094266;28;20069;-69
2023/06/24 06:40:58;;;;;;;4.32;3.92;;;;;;;31.72;30.44;96560.53;5094184;28;20123;-66
2023/06/24 06:43:25;;;;;;;6.38;4.35;;;;;;;31.93;33.23;96563.47;5094023;28;20056;-66
2023/06/24 06:45:52;;;;;;;8.85;4.18;;;;;;;32.17;31.97;96558.66;5093843;28;20132;-67
2023/06/24 06:48:19;;;;;;;5.18;4.40;;;;;;;32.47;34.22;96562.00;5094197;28;20052;-67
2023/06/24 06:50:46;;;;;;;7.32;3.92;;;;;;;32.65;31.72;96566.94;5094052;28;20067;-68
2023/06/24 06:53:14;;;;;;;5.88;4.47;;;;;;;32.92;31.51;96573.53;5093973;28;20052;-67
2023/06/24 06:55:43;;;;;;;7.28;4.88;;;;;;;33.00;28.81;96566.09;5093864;28;20143;-66
2023/06/24 06:58:10;;;;;;;5.88;4.22;;;;;;;32.64;28.21;96569.84;5094052;28;20405;-67
2023/06/24 07:00:37;;;;;;;10.30;4.75;;;;;;;32.53;28.52;96563.09;5093325;28;20048;-68
2023/06/24 07:03:04;;;;;;;6.22;4.35;;;;;;;32.14;28.80;96568.84;5093615;28;20054;-67
2023/06/24 07:05:31;;;;;;;5.72;4.18;;;;;;;31.82;29.33;96571.03;5093836;28;20044;-67
2023/06/24 07:07:58;;;;;;;6.97;4.95;;;;;;;31.82;27.12;96565.63;5093893;28;20407;-69
2023/06/24 07:10:25;;;;;;;5.00;4.53;;;;;;;31.83;27.48;96571.84;5093698;28;20044;-68
2023/06/24 07:12:57;;;;;;;6.43;4.60;;;;;;;31.84;27.91;96574.34;5093762;28;20048;-69
2023/06/24 07:15:26;;;;;;;9.15;4.35;;;;;;;32.09;27.83;96570.47;5093483;28;20054;-69
2023/06/24 07:17:53;;;;;;;5.03;4.38;;;;;;;32.03;28.30;96572.06;5093667;28;20485;-67
2023/06/24 07:20:20;;;;;;;6.68;4.80;;;;;;;32.06;30.25;96570.84;5093586;28;20054;-69
2023/06/24 07:22:48;;;;;;;8.48;4.40;;;;;;;32.22;30.40;96575.13;5093410;28;20059;-66
2023/06/24 07:25:15;;;;;;;4.85;3.88;;;;;;;32.28;30.80;96579.75;5093571;28;20070;-67
2023/06/24 07:27:42;;;;;;;9.80;4.60;;;;;;;32.42;29.27;96580.72;5093408;28;20080;-68
2023/06/24 07:30:11;;;;;;;5.93;4.68;;;;;;;32.53;28.77;96577.47;5093490;28;20097;-67
2023/06/24 07:32:38;;;;;;;9.25;4.30;;;;;;;32.68;29.82;96578.41;5093450;28;20109;-67
2023/06/24 07:35:07;;;;;;;6.85;4.30;;;;;;;32.80;28.85;96582.22;5093381;28;20048;-70
2023/06/24 07:37:35;;;;;;;4.88;4.45;;;;;;;32.89;29.67;96585.59;5093289;28;20122;-66
2023/06/24 07:40:05;;;;;;;4.55;4.13;;;;;;;33.02;29.43;96580.25;5093208;28;20401;-67
2023/06/24 07:42:32;;;;;;;7.68;4.63;;;;;;;33.26;28.80;96578.06;5093250;28;20040;-67
2023/06/24 07:44:59;;;;;;;5.65;4.70;;;;;;;33.53;28.52;96577.34;5092968;28;20101;-69
2023/06/24 07:47:27;;;;;;;12.48;4.90;;;;;;;33.75;28.75;96579.91;5093357;28;20482;-69
2023/06/24 07:49:55;;;;;;;5.70;4.90;;;;;;;33.90;29.76;96568.88;5093291;28;20044;-66
2023/06/24 07:52:22;;;;;;;7.32;4.50;;;;;;;33.99;29.56;96573.06;5093164;28;20052;-67
2023/06/24 07:54:49;;;;;;;8.82;4.90;;;;;;;33.77;27.43;96572.44;5093079;28;20499;-69
2023/06/24 07:57:17;;;;;;;6.57;4.63;;;;;;;33.91;30.78;96570.56;5093132;28;20048;-67
2023/06/24 07:59:44;;;;;;;8.85;4.32;;;;;;;34.08;29.41;96572.88;5093023;28;20056;-69
2023/06/24 08:02:11;;;;;;;6.25;4.80;;;;;;;33.83;28.85;96574.28;5092899;28;20130;-67
2023/06/24 08:04:39;;;;;;;7.35;4.45;;;;;;;33.77;28.86;96575.94;5092931;28;20044;-68
2023/06/24 08:07:07;;;;;;;8.85;5.10;;;;;;;33.56;27.98;96576.94;5092998;28;20074;-69
2023/06/24 08:09:34;;;;;;;7.80;4.50;;;;;;;33.59;29.84;96578.44;5093026;28;20413;-69
2023/06/24 08:12:01;;;;;;;5.63;4.97;;;;;;;33.64;31.49;96586.78;5094608;28;20082;-67
2023/06/24 08:14:28;;;;;;;5.57;4.40;;;;;;;33.83;31.36;96584.31;5097053;28;20052;-67
2023/06/24 08:16:55;;;;;;;8.32;4.55;;;;;;;33.98;29.24;96584.13;5096975;28;20136;-69
2023/06/24 08:19:22;;;;;;;6.57;5.10;;;;;;;34.01;30.96;96584.53;5096931;28;20047;-69
2023/06/24 08:21:51;;;;;;;6.90;4.47;;;;;;;33.82;28.76;96580.75;5096763;28;20064;-69
2023/06/24 08:24:18;;;;;;;5.13;4.63;;;;;;;33.53;30.97;96582.78;5096857;28;20048;-68
2023/06/24 08:26:45;;;;;;;7.78;4.50;;;;;;;33.41;28.93;96582.53;5096781;28;20044;-68
2023/06/24 08:29:12;;;;;;;6.45;4.60;;;;;;;33.20;29.94;96588.91;5096896;28;20456;-67
2023/06/24 08:31:40;;;;;;;5.90;4.70;;;;;;;32.83;30.47;96587.22;5096657;28;20151;-69
2023/06/24 08:34:07;;;;;;;7.15;4.25;;;;;;;32.92;31.10;96589.78;5096633;28;20485;-69
2023/06/24 08:36:36;;;;;;;8.20;4.88;;;;;;;32.71;28.66;96588.84;5096512;28;20048;-67
2023/06/24 08:39:05;;;;;;;6.82;4.72;;;;;;;32.53;30.51;96591.00;5096567;28;20440;-68
2023/06/24 08:41:32;;;;;;;6.60;4.70;;;;;;;32.65;32.09;96585.03;5096723;28;20059;-68
2023/06/24 08:44:00;;;;;;;6.90;4.88;;;;;;;32.89;32.48;96581.03;5096318;28;20067;-66
2023/06/24 08:46:29;;;;;;;4.60;4.13;;;;;;;33.14;32.48;96580.53;5096336;28;20059;-68
2023/06/24 08:49:03;;;;;;;5.70;4.43;;;;;;;33.28;31.53;96578.72;5096296;28;20052;-68
2023/06/24 08:51:36;;;;;;;8.13;4.53;;;;;;;33.17;30.09;96578.47;5096424;28;20044;-68
2023/06/24 08:54:08;;;;;;;10.07;4.85;;;;;;;33.10;33.54;96586.56;5096383;28;20054;-67
2023/06/24 08:56:38;;;;;;;9.45;4.95;;;;;;;33.23;30.86;96575.78;5096311;28;20051;-68
2023/06/24 08:59:06;;;;;;;9.15;5.00;;;;;;;33.30;29.87;96577.69;5096224;28;20043;-68
2023/06/24 09:01:33;;;;;;;6.60;4.93;;;;;;;33.08;29.90;96588.66;5096227;28;20126;-68
2023/06/24 09:04:01;;;;;;;6.32;4.97;;;;;;;33.10;29.10;96579.28;5096166;28;20409;-68
2023/06/24 09:06:28;;;;;;;6.82;5.13;;;;;;;33.18;31.50;96583.69;5096016;28;20097;-68
2023/06/24 09:08:55;;;;;;;9.85;4.68;;;;;;;33.19;31.16;96577.22;5095990;28;20047;-68
2023/06/24 09:11:28;;;;;;;5.03;4.50;;;;;;;33.39;31.90;96573.75;5095878;28;20097;-68
2023/06/24 09:13:59;;;;;;;7.30;4.85;;;;;;;33.45;30.90;96580.22;5095768;28;20044;-69
2023/06/24 09:16:27;;;;;;;5.20;4.43;;;;;;;33.19;31.08;96576.41;5095659;28;20680;-68
2023/06/24 09:18:54;;;;;;;7.50;4.60;;;;;;;33.08;32.18;96577.81;5095840;28;20044;-68
2023/06/24 09:21:26;;;;;;;7.28;4.28;;;;;;;33.27;30.41;96576.22;5095753;28;20093;-67
2023/06/24 09:23:58;;;;;;;6.80;5.00;;;;;;;33.42;31.92;96578.78;5095104;28;20052;-67
2023/06/24 09:26:29;;;;;;;8.13;4.55;;;;;;;33.40;30.86;96568.13;5095587;28;20058;-67
2023/06/24 09:28:59;;;;;;;5.43;4.85;;;;;;;33.40;31.62;96575.41;5095467;28;20408;-67
2023/06/24 09:31:28;;;;;;;9.63;4.70;;;;;;;33.40;29.79;96570.84;5095542;28;20044;-66
2023/06/24 09:33:58;;;;;;;5.60;4.70;;;;;;;33.55;32.17;96574.44;5095619;28;20497;-67
2023/06/24 09:36:26;;;;;;;6.35;4.43;;;;;;;33.44;32.36;96567.72;5095406;28;20074;-68
2023/06/24 09:38:57;;;;;;;6.65;4.57;;;;;;;33.40;31.01;96575.41;5095350;28;20044;-67
2023/06/24 09:41:28;;;;;;;8.07;5.25;;;;;;;33.38;34.28;96567.50;5095402;28;20054;-68
2023/06/24 09:43:59;;;;;;;8.13;4.80;;;;;;;33.21;31.61;96561.63;5094937;28;20494;-67
2023/06/24 09:46:27;;;;;;;7.28;4.72;;;;;;;33.11;30.28;96567.38;5095246;28;20497;-68
2023/06/24 09:48:54;;;;;;;6.68;5.30;;;;;;;32.96;29.53;96561.25;5095092;28;20054;-68
2023/06/24 09:51:22;;;;;;;9.55;4.82;;;;;;;32.91;33.01;96559.16;5095281;28;20451;-67
2023/06/24 09:53:53;;;;;;;5.90;5.07;;;;;;;32.99;32.20;96555.44;5095040;28;20410;-68
2023/06/24 09:56:21;;;;;;;8.00;4.80;;;;;;;33.12;34.08;96546.56;5094986;28;20048;-67
2023/06/24 09:58:50;;;;;;;5.53;4.47;;;;;;;33.21;33.91;96544.50;5094992;28;20123;-68
2023/06/24 10:01:18;;;;;;;5.17;4.50;;;;;;;33.07;32.40;96544.47;5094744;28;20048;-68
2023/06/24 10:03:45;;;;;;;5.30;4.63;;;;;;;33.01;31.44;96535.25;5093759;28;20131;-69
2023/06/24 10:06:13;;;;;;;4.70;4.30;;;;;;;32.87;32.08;96533.53;5094349;28;20054;-67
2023/06/24 10:08:40;;;;;;;11.80;4.88;;;;;;;32.88;33.67;96535.19;5093856;28;20048;-67
2023/06/24 10:11:07;;;;;;;11.25;5.38;;;;;;;32.82;32.44;96534.13;5094807;28;20131;-67
2023/06/24 10:13:38;;;;;;;7.50;4.70;;;;;;;32.84;34.09;96532.03;5094598;28;20051;-68
2023/06/24 10:16:06;;;;;;;;;;;;;;;32.80;32.65;96533.47;5095032;28;20125;-69
2023/06/24 10:18:35;;;;;;;8.77;5.00;;;;;;;32.88;33.05;96524.34;5094472;28;19957;-68
2023/06/24 10:21:02;;;;;;;10.63;4.97;;;;;;;33.02;34.37;96520.66;5094649;28;20486;-66
2023/06/24 10:23:43;;;;;;;5.63;4.30;;;;;;;33.07;32.42;96511.16;5093773;28;20048;-67
2023/06/24 10:26:11;;;;;;;5.82;4.32;;;;;;;32.91;33.35;96505.00;5093965;28;20131;-66
2023/06/24 10:29:14;;;;;;;7.68;4.68;;;;;;;32.92;32.84;96512.09;5094332;28;20052;-68
2023/06/24 10:31:55;;;;;;;11.55;5.00;;;;;;;32.96;31.47;96499.81;5094105;28;20048;-71
2023/06/24 10:34:30;;;;;;;7.72;5.10;;;;;;;32.88;35.01;96491.88;5092336;28;20487;-68
2023/06/24 10:37:00;;;;;;;11.43;5.22;;;;;;;33.06;34.75;96491.34;5092425;28;20131;-68
2023/06/24 10:39:37;;;;;;;5.35;4.68;;;;;;;33.33;33.20;96496.00;5094110;28;20040;-67
2023/06/24 10:42:26;;;;;;;12.07;4.97;;;;;;;33.26;33.58;96493.28;5094101;28;20075;-66
2023/06/24 10:44:55;;;;;;;11.75;5.10;;;;;;;33.33;33.35;96486.00;5093784;28;20121;-67
2023/06/24 10:47:25;;;;;;;7.93;5.30;;;;;;;33.32;33.47;96489.75;5094225;28;20053;-67
2023/06/24 10:49:52;;;;;;;5.85;5.07;;;;;;;33.41;32.85;96488.50;5094014;28;20485;-68
2023/06/24 10:52:21;;;;;;;7.03;5.18;;;;;;;33.37;31.39;96486.41;5093896;28;20502;-67
2023/06/24 10:54:49;;;;;;;7.18;5.78;;;;;;;33.18;32.27;96486.16;5094156;28;20083;-67
2023/06/24 10:57:22;;;;;;;9.57;5.00;;;;;;;33.05;31.27;96486.13;5093753;28;20136;-67
2023/06/24 10:59:49;;;;;;;8.48;5.22;;;;;;;32.73;32.51;96483.88;5093763;28;20071;-67
2023/06/24 11:02:17;;;;;;;5.18;4.68;;;;;;;32.71;34.55;96478.69;5093879;28;20139;-66
2023/06/24 11:04:46;;;;;;;6.72;5.03;;;;;;;32.76;32.05;96481.63;5093809;28;20105;-69
2023/06/24 11:07:14;;;;;;;6.55;4.88;;;;;;;32.91;33.45;96469.81;5093888;28;20078;-68
2023/06/24 11:09:43;;;;;;;5.60;5.03;;;;;;;32.92;29.21;96467.94;5093569;28;20040;-68
2023/06/24 11:12:11;;;;;;;7.75;4.55;;;;;;;32.79;31.12;96466.84;5093466;28;20047;-67
2023/06/24 11:14:41;;;;;;;8.05;4.88;;;;;;;32.72;35.22;96464.09;5093607;28;20056;-68
2023/06/24 11:17:08;;;;;;;5.53;4.57;;;;;;;32.72;35.49;96464.09;5093516;28;20103;-67
2023/06/24 11:19:39;;;;;;;9.93;4.82;;;;;;;32.91;33.36;96464.38;5080700;28;20442;-67
2023/06/24 11:22:08;;;;;;;7.57;5.18;;;;;;;33.02;33.10;96461.09;5077989;28;20131;-68
2023/06/24 11:24:36;;;;;;;5.30;4.80;;;;;;;33.17;33.24;96460.13;5075273;28;20391;-67
2023/06/24 11:27:05;;;;;;;7.85;4.80;;;;;;;33.18;32.07;96450.13;5093502;28;20078;-67
2023/06/24 11:29:35;;;;;;;7.38;4.88;;;;;;;33.23;31.69;96453.88;5092190;28;20060;-67
2023/06/24 11:32:03;;;;;;;6.72;5.25;;;;;;;33.33;32.38;96450.78;5092821;28;20044;-68
2023/06/24 11:34:31;;;;;;;7.38;5.30;;;;;;;33.35;34.81;96443.25;5093146;28;20055;-67
2023/06/24 11:36:59;;;;;;;6.20;5.25;;;;;;;33.29;33.70;96438.69;5093434;28;20077;-68
2023/06/24 11:39:29;;;;;;;6.82;4.90;;;;;;;33.16;34.61;96434.06;5091283;28;20721;-67
2023/06/24 11:41:59;;;;;;;9.30;5.75;;;;;;;33.03;34.90;96429.44;5093123;28;20051;-67